Thunder radar more information blitzortung!


Radar de pluja more information rain snow radar


Visita la nostra xarxa de llocs de meteo:

Template documentation
and downloads

And another site



No particular awareness of the weather is required.    There are no Weather-warnings

Pagina Historial Weather Underground text

Diari Resum Agost 8, 2017 Unitats:  Mètric    Imperial   Tant
« Previous Dia
SegĂźent Dia »
Diari Setmana Mensual Anual Personalitzada
  Maxima: Minima: Media:
Temperatura: 28.6 °C 19.5 °C 24.7 °C
Punt de rosada: 22.8 °C 13.4 °C 17.8 °C
Humitat: 80 % 50 % 66 %
Wind Speed: 25.9 km/h 0.0 km/h 8 km/h
RĂ fegues de vent: 25.9 km/h - -
Vent:- - East
Pression baro: 1014.8 hPa 1007.0 hPa -
Precipitacions: 0.0 mm    
Historical Graphs
 
 
Dades de taula per Agost 8, 2017
Temps Temperatura Punt de rosada Pression baro Vent Wind Speed RĂ fegues de vent Humitat Rainfall Rate (Hourly)
00:03 25.0 °C 19.2 °C 1010.0 hPa North 5.6 km/h 5.6 km/h 70 % 0.0 mm
00:05 25.0 °C 20.9 °C 1008.0 hPa North 3.2 km/h 6.4 km/h 78 % 0.0 mm
00:08 25.0 °C 19.2 °C 1010.0 hPa NNE 3.7 km/h 3.7 km/h 70 % 0.0 mm
00:15 25.0 °C 21.1 °C 1008.0 hPa NNE 4.8 km/h 9.7 km/h 79 % 0.0 mm
00:25 24.9 °C 21.2 °C 1007.0 hPa NE 3.2 km/h 4.8 km/h 80 % 0.0 mm
00:35 25.0 °C 21.3 °C 1007.0 hPa NE 1.6 km/h 4.8 km/h 80 % 0.0 mm
00:45 25.0 °C 21.1 °C 1007.0 hPa NE 3.2 km/h 4.8 km/h 79 % 0.0 mm
00:55 25.1 °C 21.4 °C 1007.0 hPa NE 3.2 km/h 6.4 km/h 80 % 0.0 mm
01:05 25.1 °C 21.4 °C 1007.0 hPa NE 3.2 km/h 4.8 km/h 80 % 0.0 mm
01:15 25.1 °C 21.4 °C 1007.0 hPa NE 1.6 km/h 3.2 km/h 80 % 0.0 mm
01:25 25.1 °C 21.4 °C 1007.0 hPa NE 1.6 km/h 4.8 km/h 80 % 0.0 mm
01:35 25.2 °C 21.5 °C 1007.0 hPa NE 3.2 km/h 3.2 km/h 80 % 0.0 mm
01:45 25.2 °C 21.5 °C 1007.0 hPa ENE 3.2 km/h 4.8 km/h 80 % 0.0 mm
01:55 25.1 °C 21.2 °C 1007.0 hPa ENE 3.2 km/h 3.2 km/h 79 % 0.0 mm
02:05 25.1 °C 21.2 °C 1007.0 hPa NE 1.6 km/h 4.8 km/h 79 % 0.0 mm
02:15 24.9 °C 20.8 °C 1007.0 hPa NE 4.8 km/h 4.8 km/h 78 % 0.0 mm
02:25 24.9 °C 20.6 °C 1008.0 hPa NNE 1.6 km/h 3.2 km/h 77 % 0.0 mm
02:35 24.8 °C 20.5 °C 1008.0 hPa North 1.6 km/h 4.8 km/h 77 % 0.0 mm
02:45 24.8 °C 20.3 °C 1008.0 hPa NNE 3.2 km/h 3.2 km/h 76 % 0.0 mm
02:55 24.9 °C 20.4 °C 1008.0 hPa NE 3.2 km/h 4.8 km/h 76 % 0.0 mm
03:05 25.0 °C 20.1 °C 1008.0 hPa NNE 1.6 km/h 3.2 km/h 74 % 0.0 mm
03:15 25.0 °C 19.8 °C 1008.0 hPa NNE 4.8 km/h 6.4 km/h 73 % 0.0 mm
03:25 25.0 °C 19.8 °C 1008.0 hPa NNE 4.8 km/h 6.4 km/h 73 % 0.0 mm
03:35 25.3 °C 20.1 °C 1008.0 hPa NE 4.8 km/h 4.8 km/h 73 % 0.0 mm
03:45 25.4 °C 20.2 °C 1008.0 hPa NE 3.2 km/h 3.2 km/h 73 % 0.0 mm
03:55 26.1 °C 20.9 °C 1008.0 hPa NE 1.6 km/h 3.2 km/h 73 % 0.0 mm
04:05 26.2 °C 20.8 °C 1008.0 hPa ENE 1.6 km/h 4.8 km/h 72 % 0.0 mm
04:15 26.7 °C 21.2 °C 1008.0 hPa NE 1.6 km/h 4.8 km/h 72 % 0.0 mm
04:25 27.1 °C 21.4 °C 1008.0 hPa NNE 3.2 km/h 3.2 km/h 71 % 0.0 mm
09:28 26.9 °C 21.7 °C 1008.0 hPa ENE 4.2 km/h 4.2 km/h 73 % 0.0 mm
09:29 26.8 °C 21.6 °C 1008.0 hPa East 6.1 km/h 6.1 km/h 73 % 0.0 mm
09:34 26.8 °C 21.8 °C 1008.0 hPa NNE 5.6 km/h 5.6 km/h 74 % 0.0 mm
09:39 26.7 °C 21.7 °C 1008.0 hPa NE 7.4 km/h 7.4 km/h 74 % 0.0 mm
09:44 26.7 °C 21.7 °C 1008.0 hPa NNE 5.8 km/h 5.8 km/h 74 % 0.0 mm
09:49 27.0 °C 21.7 °C 1008.0 hPa ENE 5.6 km/h 5.6 km/h 73 % 0.0 mm
09:54 27.2 °C 21.9 °C 1008.0 hPa ESE 5.6 km/h 5.6 km/h 73 % 0.0 mm
09:59 27.2 °C 21.9 °C 1008.0 hPa ENE 3.9 km/h 3.9 km/h 73 % 0.0 mm
10:04 27.0 °C 21.7 °C 1008.0 hPa ENE 5.6 km/h 5.6 km/h 73 % 0.0 mm
10:09 26.9 °C 21.9 °C 1008.0 hPa East 3.7 km/h 3.7 km/h 74 % 0.0 mm
10:14 27.0 °C 21.7 °C 1008.0 hPa NE 4.7 km/h 4.7 km/h 73 % 0.0 mm
10:19 27.1 °C 21.8 °C 1008.0 hPa East 3.2 km/h 3.2 km/h 73 % 0.0 mm
10:24 27.3 °C 22.1 °C 1008.0 hPa ENE 7.4 km/h 7.4 km/h 73 % 0.0 mm
10:29 27.4 °C 21.9 °C 1008.0 hPa Calm     72 % 0.0 mm
10:34 28.2 °C 22.7 °C 1009.0 hPa ENE 5.6 km/h 5.6 km/h 72 % 0.0 mm
10:39 28.6 °C 22.8 °C 1009.0 hPa ESE 5.0 km/h 5.0 km/h 71 % 0.0 mm
10:44 28.2 °C 22.4 °C 1009.0 hPa WSW 2.6 km/h   71 % 0.0 mm
10:49 28.0 °C 22.5 °C 1009.0 hPa NNW 5.6 km/h 5.6 km/h 72 % 0.0 mm
10:54 27.5 °C 21.1 °C 1009.0 hPa NE 5.6 km/h 5.6 km/h 68 % 0.0 mm
10:59 27.4 °C 20.5 °C 1009.0 hPa NE 5.6 km/h 5.6 km/h 66 % 0.0 mm
11:04 27.4 °C 20.2 °C 1009.0 hPa ESE 3.7 km/h 3.7 km/h 65 % 0.0 mm
11:09 27.2 °C 20.1 °C 1009.0 hPa East 8.7 km/h 8.7 km/h 65 % 0.0 mm
11:14 26.5 °C 20.8 °C 1009.0 hPa East 9.3 km/h 9.3 km/h 71 % 0.0 mm
11:19 25.9 °C 20.4 °C 1009.0 hPa ENE 13.0 km/h 13.0 km/h 72 % 0.0 mm
11:24 25.5 °C 20.1 °C 1009.0 hPa East 13.0 km/h 13.0 km/h 72 % 0.0 mm
11:29 25.3 °C 20.1 °C 1009.0 hPa East 14.8 km/h 14.8 km/h 73 % 0.0 mm
11:34 24.9 °C 20.2 °C 1010.0 hPa NE 13.0 km/h 13.0 km/h 75 % 0.0 mm
11:39 24.6 °C 19.9 °C 1010.0 hPa ESE 11.1 km/h 11.1 km/h 75 % 0.0 mm
11:44 24.4 °C 20.1 °C 1010.0 hPa ESE 14.0 km/h 14.0 km/h 77 % 0.0 mm
11:49 24.4 °C 20.1 °C 1009.0 hPa East 14.8 km/h 14.8 km/h 77 % 0.0 mm
11:54 24.1 °C 20.0 °C 1009.0 hPa ENE 18.5 km/h 18.5 km/h 78 % 0.0 mm
11:59 24.0 °C 20.1 °C 1009.0 hPa ESE 16.7 km/h 16.7 km/h 79 % 0.0 mm
12:04 24.0 °C 20.1 °C 1010.0 hPa NE 20.4 km/h 20.4 km/h 79 % 0.0 mm
12:09 24.0 °C 20.1 °C 1010.0 hPa ENE 18.5 km/h 18.5 km/h 79 % 0.0 mm
12:14 23.9 °C 20.2 °C 1010.0 hPa ESE 13.0 km/h 13.0 km/h 80 % 0.0 mm
12:19 23.9 °C 20.2 °C 1010.0 hPa ENE 10.0 km/h 10.0 km/h 80 % 0.0 mm
12:24 24.2 °C 20.3 °C 1010.0 hPa SE 14.8 km/h 14.8 km/h 79 % 0.0 mm
12:29 24.0 °C 20.1 °C 1010.0 hPa ESE 16.7 km/h 16.7 km/h 79 % 0.0 mm
12:34 24.1 °C 20.0 °C 1010.0 hPa SE 16.7 km/h 16.7 km/h 78 % 0.0 mm
12:36 24.1 °C 20.0 °C 1010.0 hPa ESE 13.0 km/h 13.0 km/h 78 % 0.0 mm
12:41 24.1 °C 20.0 °C 1010.0 hPa ESE 13.0 km/h 13.0 km/h 78 % 0.0 mm
12:46 24.1 °C 19.8 °C 1010.0 hPa ESE 15.8 km/h 15.8 km/h 77 % 0.0 mm
12:51 24.2 °C 19.9 °C 1010.0 hPa ESE 22.2 km/h 22.2 km/h 77 % 0.0 mm
12:56 24.3 °C 20.0 °C 1010.0 hPa ESE 20.4 km/h 20.4 km/h 77 % 0.0 mm
13:01 24.4 °C 19.9 °C 1010.0 hPa ESE 18.5 km/h 18.5 km/h 76 % 0.0 mm
13:06 24.6 °C 20.1 °C 1010.0 hPa ESE 25.9 km/h 25.9 km/h 76 % 0.0 mm
13:11 24.8 °C 19.8 °C 1010.0 hPa ESE 20.4 km/h 20.4 km/h 74 % 0.0 mm
13:16 24.9 °C 19.7 °C 1010.0 hPa ESE 22.2 km/h 22.2 km/h 73 % 0.0 mm
13:21 24.9 °C 19.7 °C 1010.0 hPa East 14.8 km/h 14.8 km/h 73 % 0.0 mm
13:26 24.6 °C 19.4 °C 1010.0 hPa ESE 13.0 km/h 13.7 km/h 73 % 0.0 mm
13:31 24.7 °C 19.8 °C 1010.0 hPa ESE 9.3 km/h 9.3 km/h 74 % 0.0 mm
13:36 24.6 °C 19.7 °C 1010.0 hPa NNW 7.4 km/h 7.4 km/h 74 % 0.0 mm
13:41 24.5 °C 19.6 °C 1010.0 hPa ENE 3.7 km/h 4.7 km/h 74 % 0.0 mm
13:46 24.4 °C 19.4 °C 1010.0 hPa ENE 9.3 km/h 9.3 km/h 74 % 0.0 mm
13:51 24.4 °C 19.4 °C 1010.0 hPa NNE 9.3 km/h 9.3 km/h 74 % 0.0 mm
13:56 24.4 °C 19.7 °C 1010.0 hPa North 9.3 km/h 9.3 km/h 75 % 0.0 mm
14:01 24.6 °C 19.9 °C 1010.0 hPa East 11.1 km/h 11.1 km/h 75 % 0.0 mm
14:06 24.4 °C 19.4 °C 1010.0 hPa ENE 9.3 km/h 9.3 km/h 74 % 0.0 mm
14:11 24.6 °C 19.9 °C 1010.0 hPa NNE 7.4 km/h 7.4 km/h 75 % 0.0 mm
14:16 25.0 °C 19.8 °C 1010.0 hPa ESE 9.3 km/h 9.3 km/h 73 % 0.0 mm
14:21 24.8 °C 19.6 °C 1010.0 hPa ESE 11.1 km/h 11.1 km/h 73 % 0.0 mm
14:26 24.9 °C 19.7 °C 1010.0 hPa NNE 9.3 km/h 9.3 km/h 73 % 0.0 mm
14:31 25.1 °C 19.7 °C 1010.0 hPa East 7.4 km/h 7.4 km/h 72 % 0.0 mm
14:36 25.2 °C 19.8 °C 1010.0 hPa ENE 7.4 km/h 7.4 km/h 72 % 0.0 mm
14:41 25.5 °C 19.8 °C 1010.0 hPa ESE 7.4 km/h 7.4 km/h 71 % 0.0 mm
14:46 26.2 °C 20.5 °C 1010.0 hPa ESE 9.5 km/h 9.5 km/h 71 % 0.0 mm
14:51 25.8 °C 19.9 °C 1010.0 hPa ENE 7.4 km/h 7.4 km/h 70 % 0.0 mm
14:56 26.4 °C 20.3 °C 1010.0 hPa NE 13.0 km/h 13.0 km/h 69 % 0.0 mm
15:01 26.5 °C 20.3 °C 1010.0 hPa NNE 7.4 km/h 7.4 km/h 69 % 0.0 mm
15:06 26.4 °C 20.0 °C 1010.0 hPa ENE 13.0 km/h 13.0 km/h 68 % 0.0 mm
15:11 26.3 °C 19.7 °C 1010.0 hPa ESE 11.1 km/h 11.1 km/h 67 % 0.0 mm
15:16 26.6 °C 19.9 °C 1010.0 hPa East 7.4 km/h 7.4 km/h 67 % 0.0 mm
15:17 26.5 °C 19.9 °C 1010.0 hPa ESE 12.2 km/h 12.2 km/h 67 % 0.0 mm
15:22 26.8 °C 19.9 °C 1010.0 hPa NE 9.3 km/h 9.3 km/h 66 % 0.0 mm
15:27 26.6 °C 19.5 °C 1010.0 hPa ENE 11.1 km/h 11.1 km/h 65 % 0.0 mm
15:32 26.5 °C 19.4 °C 1010.0 hPa North 14.8 km/h 14.8 km/h 65 % 0.0 mm
15:37 26.8 °C 19.4 °C 1010.0 hPa NNE 14.8 km/h 14.8 km/h 64 % 0.0 mm
15:42 26.5 °C 19.1 °C 1010.0 hPa ENE 14.8 km/h 14.8 km/h 64 % 0.0 mm
15:47 26.6 °C 19.2 °C 1010.0 hPa East 11.1 km/h 11.1 km/h 64 % 0.0 mm
15:52 26.8 °C 19.4 °C 1010.0 hPa East 11.1 km/h 11.1 km/h 64 % 0.0 mm
15:57 26.6 °C 19.2 °C 1010.0 hPa ESE 10.3 km/h 10.3 km/h 64 % 0.0 mm
16:02 26.5 °C 18.9 °C 1010.0 hPa East 13.0 km/h 13.0 km/h 63 % 0.0 mm
16:07 26.4 °C 18.6 °C 1010.0 hPa ENE 16.7 km/h 16.7 km/h 62 % 0.0 mm
16:12 26.5 °C 18.6 °C 1010.0 hPa East 13.0 km/h 13.0 km/h 62 % 0.0 mm
16:17 26.7 °C 18.6 °C 1010.0 hPa WSW 13.0 km/h 13.0 km/h 61 % 0.0 mm
16:22 26.9 °C 18.5 °C 1010.0 hPa South 9.3 km/h 9.3 km/h 60 % 0.0 mm
16:27 26.9 °C 18.5 °C 1010.0 hPa NNE 12.6 km/h 12.6 km/h 60 % 0.0 mm
16:32 27.0 °C 18.1 °C 1010.0 hPa ESE 14.8 km/h 14.8 km/h 58 % 0.0 mm
16:37 27.2 °C 17.9 °C 1010.0 hPa SE 13.0 km/h 13.0 km/h 57 % 0.0 mm
16:42 27.4 °C 17.8 °C 1010.0 hPa East 14.8 km/h 14.8 km/h 56 % 0.0 mm
16:47 27.2 °C 17.7 °C 1010.0 hPa ENE 18.5 km/h 18.5 km/h 56 % 0.0 mm
16:52 27.1 °C 17.3 °C 1010.0 hPa SE 20.4 km/h 20.4 km/h 55 % 0.0 mm
16:57 26.8 °C 17.3 °C 1010.0 hPa ESE 20.4 km/h 20.4 km/h 56 % 0.0 mm
16:58 26.7 °C 17.2 °C 1010.0 hPa ESE 16.7 km/h 16.7 km/h 56 % 0.0 mm
17:03 27.1 °C 17.3 °C 1010.0 hPa ESE 11.1 km/h 11.1 km/h 55 % 0.0 mm
17:08 27.2 °C 17.4 °C 1010.0 hPa ENE 14.8 km/h 14.8 km/h 55 % 0.0 mm
17:13 27.0 °C 17.2 °C 1010.0 hPa SE 13.0 km/h 13.0 km/h 55 % 0.0 mm
17:18 26.9 °C 17.1 °C 1010.0 hPa SSE 7.4 km/h 7.4 km/h 55 % 0.0 mm
17:23 26.8 °C 17.0 °C 1010.0 hPa South 13.0 km/h 13.0 km/h 55 % 0.0 mm
17:28 26.5 °C 17.0 °C 1010.0 hPa SSE 14.5 km/h 14.5 km/h 56 % 0.0 mm
17:33 26.4 °C 16.9 °C 1010.0 hPa East 9.3 km/h 9.3 km/h 56 % 0.0 mm
17:38 26.6 °C 16.8 °C 1010.0 hPa South 16.7 km/h 16.7 km/h 55 % 0.0 mm
17:43 26.3 °C 16.2 °C 1010.0 hPa East 14.8 km/h 14.8 km/h 54 % 0.0 mm
17:48 26.1 °C 16.1 °C 1010.0 hPa SE 9.3 km/h 9.3 km/h 54 % 0.0 mm
17:53 26.0 °C 15.7 °C 1010.0 hPa East 7.9 km/h 7.9 km/h 53 % 0.0 mm
17:58 25.9 °C 15.6 °C 1010.0 hPa ESE 13.7 km/h 13.7 km/h 53 % 0.0 mm
18:03 25.8 °C 15.2 °C 1010.0 hPa SE 14.8 km/h 14.8 km/h 52 % 0.0 mm
18:08 25.7 °C 14.8 °C 1010.0 hPa East 18.5 km/h 18.5 km/h 51 % 0.0 mm
18:13 25.7 °C 15.1 °C 1010.0 hPa ESE 11.1 km/h 11.1 km/h 52 % 0.0 mm
18:18 25.8 °C 15.2 °C 1010.7 hPa ESE 16.7 km/h 16.7 km/h 52 % 0.0 mm
18:23 25.6 °C 15.0 °C 1010.7 hPa East 16.7 km/h 16.7 km/h 52 % 0.0 mm
18:28 25.6 °C 14.7 °C 1010.7 hPa ESE 11.1 km/h 11.1 km/h 51 % 0.0 mm
18:33 25.6 °C 14.7 °C 1010.7 hPa East 18.5 km/h 18.5 km/h 51 % 0.0 mm
18:38 25.6 °C 14.7 °C 1010.7 hPa ESE 11.1 km/h 11.1 km/h 51 % 0.0 mm
18:43 25.6 °C 14.7 °C 1010.7 hPa ESE 11.1 km/h 11.1 km/h 51 % 0.0 mm
18:48 25.6 °C 14.7 °C 1010.7 hPa SE 7.4 km/h 7.4 km/h 51 % 0.0 mm
18:53 25.6 °C 14.7 °C 1010.7 hPa East 7.9 km/h 7.9 km/h 51 % 0.0 mm
18:58 25.5 °C 14.6 °C 1010.7 hPa ENE 13.0 km/h 13.0 km/h 51 % 0.0 mm
19:03 25.4 °C 14.2 °C 1011.7 hPa ESE 16.7 km/h 16.7 km/h 50 % 0.0 mm
19:08 25.5 °C 14.3 °C 1011.7 hPa South 9.3 km/h 9.3 km/h 50 % 0.0 mm
19:13 25.4 °C 14.2 °C 1011.7 hPa ESE 13.0 km/h 13.0 km/h 50 % 0.0 mm
19:18 25.1 °C 14.3 °C 1011.7 hPa ESE 16.9 km/h 16.9 km/h 51 % 0.0 mm
19:23 25.1 °C 14.3 °C 1011.7 hPa ENE 9.0 km/h 9.0 km/h 51 % 0.0 mm
19:28 25.0 °C 14.2 °C 1011.7 hPa SSE 5.6 km/h 5.6 km/h 51 % 0.0 mm
19:33 25.0 °C 14.2 °C 1011.7 hPa ENE 9.3 km/h 9.3 km/h 51 % 0.0 mm
19:38 24.9 °C 14.4 °C 1011.7 hPa East 9.3 km/h 9.3 km/h 52 % 0.0 mm
19:43 24.8 °C 14.6 °C 1011.7 hPa SSE 7.4 km/h 7.4 km/h 53 % 0.0 mm
19:48 24.8 °C 14.6 °C 1011.7 hPa ESE 9.3 km/h 9.3 km/h 53 % 0.0 mm
19:53 24.7 °C 14.5 °C 1011.7 hPa ESE 7.4 km/h 7.4 km/h 53 % 0.0 mm
19:55 21.0 °C 15.3 °C 1014.8 hPa WSW 1.6 km/h 3.2 km/h 70 % 0.0 mm
19:58 24.6 °C 14.4 °C 1011.7 hPa SE 7.4 km/h 7.4 km/h 53 % 0.0 mm
20:03 24.6 °C 14.7 °C 1011.7 hPa East 7.4 km/h 7.4 km/h 54 % 0.0 mm
20:05 24.5 °C 14.6 °C 1011.7 hPa SE 11.1 km/h 11.1 km/h 54 % 0.0 mm
20:10 24.4 °C 14.5 °C 1011.7 hPa SE 9.3 km/h 9.3 km/h 54 % 0.0 mm
20:15 24.4 °C 14.5 °C 1011.7 hPa SE 11.1 km/h 11.1 km/h 54 % 0.0 mm
20:20 24.3 °C 14.7 °C 1011.7 hPa East 7.4 km/h 7.4 km/h 55 % 0.0 mm
20:25 24.2 °C 14.6 °C 1011.7 hPa NE 7.4 km/h 7.4 km/h 55 % 0.0 mm
20:30 24.2 °C 14.6 °C 1012.8 hPa ENE 9.3 km/h 9.3 km/h 55 % 0.0 mm
20:35 24.1 °C 14.8 °C 1012.8 hPa ESE 9.3 km/h 9.3 km/h 56 % 0.0 mm
20:37 24.1 °C 14.8 °C 1012.8 hPa ESE 5.6 km/h 5.6 km/h 56 % 0.0 mm
20:42 24.0 °C 14.7 °C 1012.8 hPa NE 11.1 km/h 11.1 km/h 56 % 0.0 mm
20:45 20.5 °C 15.3 °C 1014.8 hPa Calm   3.2 km/h 72 % 0.0 mm
20:47 23.9 °C 15.1 °C 1012.8 hPa ENE 5.6 km/h 5.6 km/h 58 % 0.0 mm
20:52 23.8 °C 15.1 °C 1012.8 hPa East 7.4 km/h 7.4 km/h 58 % 0.0 mm
20:55 20.4 °C 15.4 °C 1014.8 hPa Calm     73 % 0.0 mm
20:57 23.7 °C 14.9 °C 1012.8 hPa East 9.3 km/h 9.3 km/h 58 % 0.0 mm
21:02 23.7 °C 15.2 °C 1013.8 hPa SE 5.6 km/h 5.6 km/h 59 % 0.0 mm
21:05 20.3 °C 15.3 °C 1014.8 hPa East 1.6 km/h 4.8 km/h 73 % 0.0 mm
21:07 23.6 °C 15.1 °C 1013.8 hPa ENE 5.8 km/h 5.8 km/h 59 % 0.0 mm
21:12 23.6 °C 15.1 °C 1013.8 hPa ENE 4.2 km/h 4.2 km/h 59 % 0.0 mm
21:15 20.1 °C 15.1 °C 1014.8 hPa East 3.2 km/h 4.8 km/h 73 % 0.0 mm
21:17 23.5 °C 15.0 °C 1013.8 hPa ESE 3.7 km/h   59 % 0.0 mm
21:22 23.5 °C 15.0 °C 1013.8 hPa East 9.3 km/h 9.3 km/h 59 % 0.0 mm
21:25 19.9 °C 15.1 °C 1014.8 hPa ENE 1.6 km/h 4.8 km/h 74 % 0.0 mm
21:27 23.4 °C 14.9 °C 1013.8 hPa East 4.7 km/h 4.7 km/h 59 % 0.0 mm
21:32 23.3 °C 15.1 °C 1013.8 hPa ESE 7.4 km/h 7.4 km/h 60 % 0.0 mm
21:37 23.2 °C 15.0 °C 1013.8 hPa ESE 7.4 km/h 7.4 km/h 60 % 0.0 mm
21:40 19.9 °C 15.3 °C 1014.8 hPa Calm   3.2 km/h 75 % 0.0 mm
21:42 23.2 °C 15.0 °C 1013.8 hPa ENE 5.0 km/h 5.0 km/h 60 % 0.0 mm
21:47 23.1 °C 14.9 °C 1013.8 hPa NNE 3.7 km/h 3.7 km/h 60 % 0.0 mm
21:50 19.9 °C 15.3 °C 1014.8 hPa Calm   3.2 km/h 75 % 0.0 mm
21:52 23.0 °C 15.1 °C 1013.8 hPa ESE 5.8 km/h 5.8 km/h 61 % 0.0 mm
21:57 23.0 °C 15.1 °C 1013.8 hPa East 3.7 km/h 3.7 km/h 61 % 0.0 mm
22:02 23.0 °C 15.1 °C 1013.8 hPa East 5.6 km/h 5.6 km/h 61 % 0.0 mm
22:07 23.1 °C 15.2 °C 1013.8 hPa East 7.4 km/h 7.4 km/h 61 % 0.0 mm
22:10 19.7 °C 15.2 °C 1014.8 hPa Calm   3.2 km/h 75 % 0.0 mm
22:12 23.1 °C 15.2 °C 1013.8 hPa SW 3.7 km/h 3.7 km/h 61 % 0.0 mm
22:17 23.0 °C 15.1 °C 1013.8 hPa South 3.7 km/h 3.7 km/h 61 % 0.0 mm
22:20 19.9 °C 15.3 °C 1014.8 hPa SW 1.6 km/h 3.2 km/h 75 % 0.0 mm
22:22 23.0 °C 15.1 °C 1013.8 hPa SE 3.9 km/h 3.9 km/h 61 % 0.0 mm
22:27 23.0 °C 15.1 °C 1013.8 hPa SSW 3.7 km/h   61 % 0.0 mm
22:30 19.9 °C 15.1 °C 1014.8 hPa Calm   3.2 km/h 74 % 0.0 mm
22:32 22.9 °C 15.0 °C 1014.8 hPa SW 1.9 km/h 1.9 km/h 61 % 0.0 mm
22:37 22.7 °C 15.1 °C 1014.8 hPa SW 3.7 km/h 3.7 km/h 62 % 0.0 mm
22:40 19.9 °C 14.5 °C 1014.8 hPa Calm   3.2 km/h 71 % 0.0 mm
22:42 22.5 °C 14.8 °C 1014.8 hPa Calm     62 % 0.0 mm
22:47 22.5 °C 14.8 °C 1013.8 hPa ENE 1.9 km/h 2.3 km/h 62 % 0.0 mm
22:50 19.9 °C 14.1 °C 1014.8 hPa Calm   1.6 km/h 69 % 0.0 mm
22:52 22.4 °C 14.8 °C 1013.8 hPa Calm     62 % 0.0 mm
22:57 22.3 °C 14.9 °C 1013.8 hPa SW 1.9 km/h 1.9 km/h 63 % 0.0 mm
23:00 19.8 °C 13.5 °C 1014.8 hPa NE 1.6 km/h 3.2 km/h 67 % 0.0 mm
23:02 22.3 °C 14.9 °C 1013.8 hPa SW 3.7 km/h 3.7 km/h 63 % 0.0 mm
23:07 22.3 °C 14.9 °C 1013.8 hPa Calm     63 % 0.0 mm
23:10 19.9 °C 13.6 °C 1013.8 hPa East 1.6 km/h 3.2 km/h 67 % 0.0 mm
23:12 22.2 °C 14.8 °C 1013.8 hPa Calm     63 % 0.0 mm
23:17 22.2 °C 15.1 °C 1014.8 hPa NE 3.2 km/h 3.2 km/h 64 % 0.0 mm
23:20 19.8 °C 13.5 °C 1013.8 hPa Calm   3.2 km/h 67 % 0.0 mm
23:22 22.1 °C 14.9 °C 1014.8 hPa Calm     64 % 0.0 mm
23:27 22.1 °C 14.9 °C 1014.8 hPa NW 1.9 km/h 1.9 km/h 64 % 0.0 mm
23:30 19.7 °C 13.6 °C 1013.8 hPa NE 1.6 km/h 3.2 km/h 68 % 0.0 mm
23:32 22.0 °C 14.9 °C 1014.8 hPa Calm     64 % 0.0 mm
23:37 22.0 °C 15.1 °C 1014.8 hPa Calm     65 % 0.0 mm
23:40 19.5 °C 13.4 °C 1013.8 hPa SW 1.6 km/h 1.6 km/h 68 % 0.0 mm
23:42 21.9 °C 15.3 °C 1014.8 hPa Calm     66 % 0.0 mm
23:47 21.8 °C 15.2 °C 1014.8 hPa Calm     66 % 0.0 mm
23:50 19.5 °C 13.7 °C 1013.8 hPa Calm   1.6 km/h 69 % 0.0 mm
23:52 21.7 °C 15.1 °C 1014.8 hPa SW 3.7 km/h 3.7 km/h 66 % 0.0 mm
23:57 21.6 °C 15.0 °C 1014.8 hPa SW 2.3 km/h 2.3 km/h 66 % 0.0 mm
Meteo Sesrovires
Elogis d' Weather Underground - 3.75 mb

Guio original per  Jim McMurry - jmcmurry@mwt.net Adaptat per a la plantilla per  Wim van der Kuil - Leuven-Template.eu

Trobareu la nostra informacio del temps tambe a:

Weather Underground

AWEKAS